sensor_id;sensor_type;location;lat;lon;timestamp;pressure;altitude;pressure_sealevel;temperature;humidity
9307;BME280;4691;47.612;7.610;2023-01-27T00:00:23;98940.56;;;-0.66;100.00
9307;BME280;4691;47.612;7.610;2023-01-27T00:02:49;98937.00;;;-0.65;100.00
9307;BME280;4691;47.612;7.610;2023-01-27T00:05:15;98936.19;;;-0.67;100.00
9307;BME280;4691;47.612;7.610;2023-01-27T00:07:42;98930.94;;;-0.67;100.00
9307;BME280;4691;47.612;7.610;2023-01-27T00:10:11;98933.38;;;-0.61;100.00
9307;BME280;4691;47.612;7.610;2023-01-27T00:12:36;98937.00;;;-0.65;100.00
9307;BME280;4691;47.612;7.610;2023-01-27T00:15:20;98930.03;;;-0.66;100.00
9307;BME280;4691;47.612;7.610;2023-01-27T00:17:45;98933.56;;;-0.67;100.00
9307;BME280;4691;47.612;7.610;2023-01-27T00:20:11;98939.59;;;-0.63;100.00
9307;BME280;4691;47.612;7.610;2023-01-27T00:22:36;98939.47;;;-0.59;100.00
9307;BME280;4691;47.612;7.610;2023-01-27T00:25:20;98933.50;;;-0.64;100.00
9307;BME280;4691;47.612;7.610;2023-01-27T00:27:46;98935.09;;;-0.60;100.00
9307;BME280;4691;47.612;7.610;2023-01-27T00:30:11;98936.88;;;-0.60;100.00
9307;BME280;4691;47.612;7.610;2023-01-27T00:32:37;98933.50;;;-0.64;100.00
9307;BME280;4691;47.612;7.610;2023-01-27T00:35:21;98936.16;;;-0.66;100.00
9307;BME280;4691;47.612;7.610;2023-01-27T00:37:48;98937.09;;;-0.68;100.00
9307;BME280;4691;47.612;7.610;2023-01-27T00:40:14;98926.59;;;-0.68;100.00
9307;BME280;4691;47.612;7.610;2023-01-27T00:42:41;98925.66;;;-0.66;100.00
9307;BME280;4691;47.612;7.610;2023-01-27T00:45:06;98917.78;;;-0.67;100.00
9307;BME280;4691;47.612;7.610;2023-01-27T00:47:51;98915.28;;;-0.70;100.00
9307;BME280;4691;47.612;7.610;2023-01-27T00:50:17;98912.38;;;-0.61;100.00
9307;BME280;4691;47.612;7.610;2023-01-27T00:52:43;98917.78;;;-0.67;100.00
9307;BME280;4691;47.612;7.610;2023-01-27T00:55:09;98916.00;;;-0.65;100.00
9307;BME280;4691;47.612;7.610;2023-01-27T00:57:35;98904.84;;;-0.72;100.00
9307;BME280;4691;47.612;7.610;2023-01-27T01:00:01;98905.69;;;-0.71;100.00
9307;BME280;4691;47.612;7.610;2023-01-27T01:02:27;98909.19;;;-0.72;100.00
9307;BME280;4691;47.612;7.610;2023-01-27T01:04:52;98910.84;;;-0.68;100.00
9307;BME280;4691;47.612;7.610;2023-01-27T01:07:18;98909.13;;;-0.69;100.00
9307;BME280;4691;47.612;7.610;2023-01-27T01:09:43;98914.56;;;-0.75;100.00
9307;BME280;4691;47.612;7.610;2023-01-27T01:12:08;98912.66;;;-0.70;100.00
9307;BME280;4691;47.612;7.610;2023-01-27T01:14:34;98914.38;;;-0.69;100.00
9307;BME280;4691;47.612;7.610;2023-01-27T01:16:59;98918.72;;;-0.68;100.00
9307;BME280;4691;47.612;7.610;2023-01-27T01:19:24;98916.94;;;-0.68;100.00
9307;BME280;4691;47.612;7.610;2023-01-27T01:21:49;98923.34;;;-0.76;100.00
9307;BME280;4691;47.612;7.610;2023-01-27T01:24:15;98923.38;;;-0.78;100.00
9307;BME280;4691;47.612;7.610;2023-01-27T01:26:40;98929.31;;;-0.71;100.00
9307;BME280;4691;47.612;7.610;2023-01-27T01:29:06;98922.41;;;-0.74;100.00
9307;BME280;4691;47.612;7.610;2023-01-27T01:31:31;98921.53;;;-0.74;100.00
9307;BME280;4691;47.612;7.610;2023-01-27T01:33:56;98920.75;;;-0.78;100.00
9307;BME280;4691;47.612;7.610;2023-01-27T01:36:22;98913.81;;;-0.79;100.00
9307;BME280;4691;47.612;7.610;2023-01-27T01:38:47;98916.19;;;-0.71;100.00
9307;BME280;4691;47.612;7.610;2023-01-27T01:41:16;98910.25;;;-0.78;100.00
9307;BME280;4691;47.612;7.610;2023-01-27T01:43:41;98919.72;;;-0.72;100.00
9307;BME280;4691;47.612;7.610;2023-01-27T01:46:09;98916.38;;;-0.77;100.00
9307;BME280;4691;47.612;7.610;2023-01-27T01:48:36;98918.09;;;-0.76;100.00
9307;BME280;4691;47.612;7.610;2023-01-27T01:53:51;98906.06;;;-0.83;100.00
9307;BME280;4691;47.612;7.610;2023-01-27T01:56:24;98910.16;;;-0.75;100.00
9307;BME280;4691;47.612;7.610;2023-01-27T01:58:52;98897.25;;;-0.82;100.00
9307;BME280;4691;47.612;7.610;2023-01-27T02:01:18;98891.94;;;-0.79;100.00
9307;BME280;4691;47.612;7.610;2023-01-27T02:03:48;98888.50;;;-0.81;100.00
9307;BME280;4691;47.612;7.610;2023-01-27T02:06:15;98887.78;;;-0.86;100.00
9307;BME280;4691;47.612;7.610;2023-01-27T02:08:43;98879.81;;;-0.83;100.00
9307;BME280;4691;47.612;7.610;2023-01-27T02:11:09;98878.75;;;-0.78;100.00
9307;BME280;4691;47.612;7.610;2023-01-27T02:13:35;98868.31;;;-0.79;100.00
9307;BME280;4691;47.612;7.610;2023-01-27T02:16:01;98865.13;;;-0.91;100.00
9307;BME280;4691;47.612;7.610;2023-01-27T02:18:27;98863.31;;;-0.89;100.00
9307;BME280;4691;47.612;7.610;2023-01-27T02:20:53;98870.13;;;-0.81;100.00
9307;BME280;4691;47.612;7.610;2023-01-27T02:23:28;98865.47;;;-0.73;100.00
9307;BME280;4691;47.612;7.610;2023-01-27T02:26:10;98864.97;;;-0.84;100.00
9307;BME280;4691;47.612;7.610;2023-01-27T02:28:37;98867.50;;;-0.81;100.00
9307;BME280;4691;47.612;7.610;2023-01-27T02:31:03;98864.97;;;-0.84;100.00
9307;BME280;4691;47.612;7.610;2023-01-27T02:33:28;98862.25;;;-0.81;100.00
9307;BME280;4691;47.612;7.610;2023-01-27T02:36:09;98851.78;;;-0.83;100.00
9307;BME280;4691;47.612;7.610;2023-01-27T02:38:39;98848.41;;;-0.86;100.00
9307;BME280;4691;47.612;7.610;2023-01-27T02:43:51;98847.19;;;-0.76;100.00
9307;BME280;4691;47.612;7.610;2023-01-27T02:46:16;98841.16;;;-0.80;100.00
9307;BME280;4691;47.612;7.610;2023-01-27T02:48:41;98843.97;;;-0.84;100.00
9307;BME280;4691;47.612;7.610;2023-01-27T02:51:07;98839.31;;;-0.76;100.00
9307;BME280;4691;47.612;7.610;2023-01-27T02:53:34;98837.78;;;-0.83;100.00
9307;BME280;4691;47.612;7.610;2023-01-27T02:55:59;98828.72;;;-0.73;100.00
9307;BME280;4691;47.612;7.610;2023-01-27T02:58:24;98837.69;;;-0.80;100.00
9307;BME280;4691;47.612;7.610;2023-01-27T03:00:50;98833.53;;;-0.88;100.00
9307;BME280;4691;47.612;7.610;2023-01-27T03:03:15;98823.84;;;-0.85;100.00
9307;BME280;4691;47.612;7.610;2023-01-27T03:05:41;98814.97;;;-0.81;100.00
9307;BME280;4691;47.612;7.610;2023-01-27T03:08:06;98820.97;;;-0.78;100.00
9307;BME280;4691;47.612;7.610;2023-01-27T03:10:32;98815.88;;;-0.82;100.00
9307;BME280;4691;47.612;7.610;2023-01-27T03:12:58;98816.69;;;-0.80;100.00
9307;BME280;4691;47.612;7.610;2023-01-27T03:15:23;98815.72;;;-0.78;100.00
9307;BME280;4691;47.612;7.610;2023-01-27T03:19:30;98820.97;;;-0.78;100.00
9307;BME280;4691;47.612;7.610;2023-01-27T03:21:55;98811.44;;;-0.80;100.00
9307;BME280;4691;47.612;7.610;2023-01-27T03:24:21;98816.03;;;-0.87;100.00
9307;BME280;4691;47.612;7.610;2023-01-27T03:26:47;98812.53;;;-0.88;100.00
9307;BME280;4691;47.612;7.610;2023-01-27T03:29:12;98815.25;;;-0.91;100.00
9307;BME280;4691;47.612;7.610;2023-01-27T03:31:56;98814.41;;;-0.91;100.00
9307;BME280;4691;47.612;7.610;2023-01-27T03:34:21;98816.06;;;-0.89;100.00
9307;BME280;4691;47.612;7.610;2023-01-27T03:36:47;98815.09;;;-0.84;100.00
9307;BME280;4691;47.612;7.610;2023-01-27T03:39:31;98807.03;;;-0.80;100.00
9307;BME280;4691;47.612;7.610;2023-01-27T03:42:14;98806.06;;;-0.77;100.00
9307;BME280;4691;47.612;7.610;2023-01-27T03:44:59;98804.47;;;-0.81;100.00
9307;BME280;4691;47.612;7.610;2023-01-27T03:47:42;98801.88;;;-0.83;100.00
9307;BME280;4691;47.612;7.610;2023-01-27T03:50:08;98805.19;;;-0.76;100.00
9307;BME280;4691;47.612;7.610;2023-01-27T03:52:36;98799.22;;;-0.81;100.00
9307;BME280;4691;47.612;7.610;2023-01-27T03:55:01;98797.72;;;-0.90;100.00
9307;BME280;4691;47.612;7.610;2023-01-27T03:57:28;98802.56;;;-0.76;100.00
9307;BME280;4691;47.612;7.610;2023-01-27T03:59:53;98801.75;;;-0.78;100.00
9307;BME280;4691;47.612;7.610;2023-01-27T04:02:18;98799.00;;;-0.75;100.00
9307;BME280;4691;47.612;7.610;2023-01-27T04:05:02;98806.97;;;-0.77;100.00
9307;BME280;4691;47.612;7.610;2023-01-27T04:07:46;98800.81;;;-0.77;100.00
9307;BME280;4691;47.612;7.610;2023-01-27T04:10:12;98793.06;;;-0.80;100.00
9307;BME280;4691;47.612;7.610;2023-01-27T04:12:37;98793.97;;;-0.81;100.00
9307;BME280;4691;47.612;7.610;2023-01-27T04:15:03;98789.56;;;-0.81;100.00
9307;BME280;4691;47.612;7.610;2023-01-27T04:17:28;98788.56;;;-0.77;100.00
9307;BME280;4691;47.612;7.610;2023-01-27T04:19:54;98791.94;;;-0.73;100.00
9307;BME280;4691;47.612;7.610;2023-01-27T04:22:20;98785.88;;;-0.75;100.00
9307;BME280;4691;47.612;7.610;2023-01-27T04:24:46;98776.41;;;-0.79;100.00
9307;BME280;4691;47.612;7.610;2023-01-27T04:27:13;98780.69;;;-0.77;100.00
9307;BME280;4691;47.612;7.610;2023-01-27T04:29:41;98777.19;;;-0.77;100.00
9307;BME280;4691;47.612;7.610;2023-01-27T04:32:09;98784.03;;;-0.72;100.00
9307;BME280;4691;47.612;7.610;2023-01-27T04:34:35;98781.72;;;-0.82;100.00
9307;BME280;4691;47.612;7.610;2023-01-27T04:37:00;98779.75;;;-0.74;100.00
9307;BME280;4691;47.612;7.610;2023-01-27T04:39:27;98783.38;;;-0.78;100.00
9307;BME280;4691;47.612;7.610;2023-01-27T04:41:54;98791.09;;;-0.74;100.00
9307;BME280;4691;47.612;7.610;2023-01-27T04:44:20;98785.69;;;-0.69;100.00
9307;BME280;4691;47.612;7.610;2023-01-27T04:46:45;98792.69;;;-0.70;100.00
9307;BME280;4691;47.612;7.610;2023-01-27T04:49:11;98783.94;;;-0.69;100.00
9307;BME280;4691;47.612;7.610;2023-01-27T04:51:36;98780.53;;;-0.72;100.00
9307;BME280;4691;47.612;7.610;2023-01-27T04:54:02;98778.78;;;-0.72;100.00
9307;BME280;4691;47.612;7.610;2023-01-27T04:56:36;98776.19;;;-0.73;100.00
9307;BME280;4691;47.612;7.610;2023-01-27T04:59:05;98772.66;;;-0.72;100.00
9307;BME280;4691;47.612;7.610;2023-01-27T05:01:31;98771.69;;;-0.70;100.00
9307;BME280;4691;47.612;7.610;2023-01-27T05:03:56;98769.28;;;-0.76;100.00
9307;BME280;4691;47.612;7.610;2023-01-27T05:06:22;98758.97;;;-0.82;100.00
9307;BME280;4691;47.612;7.610;2023-01-27T05:08:48;98760.53;;;-0.76;100.00
9307;BME280;4691;47.612;7.610;2023-01-27T05:11:14;98760.72;;;-0.82;100.00
9307;BME280;4691;47.612;7.610;2023-01-27T05:13:40;98755.34;;;-0.78;100.00
9307;BME280;4691;47.612;7.610;2023-01-27T05:16:14;98758.91;;;-0.80;100.00
9307;BME280;4691;47.612;7.610;2023-01-27T05:18:40;98747.34;;;-0.75;100.00
9307;BME280;4691;47.612;7.610;2023-01-27T05:21:07;98750.16;;;-0.79;100.00
9307;BME280;4691;47.612;7.610;2023-01-27T05:23:35;98753.66;;;-0.80;100.00
9307;BME280;4691;47.612;7.610;2023-01-27T05:28:38;98751.00;;;-0.79;100.00
9307;BME280;4691;47.612;7.610;2023-01-27T05:31:21;98753.47;;;-0.74;100.00
9307;BME280;4691;47.612;7.610;2023-01-27T05:33:48;98749.94;;;-0.73;100.00
9307;BME280;4691;47.612;7.610;2023-01-27T05:36:16;98750.03;;;-0.76;100.00
9307;BME280;4691;47.612;7.610;2023-01-27T05:38:41;98759.75;;;-0.80;100.00
9307;BME280;4691;47.612;7.610;2023-01-27T05:41:09;98766.69;;;-0.77;100.00
9307;BME280;4691;47.612;7.610;2023-01-27T05:43:36;98759.72;;;-0.78;100.00
9307;BME280;4691;47.612;7.610;2023-01-27T05:48:30;98767.72;;;-0.81;100.00
9307;BME280;4691;47.612;7.610;2023-01-27T05:50:58;98771.22;;;-0.82;100.00
9307;BME280;4691;47.612;7.610;2023-01-27T05:53:24;98764.25;;;-0.82;100.00
9307;BME280;4691;47.612;7.610;2023-01-27T05:55:50;98758.56;;;-0.70;100.00
9307;BME280;4691;47.612;7.610;2023-01-27T05:58:16;98763.16;;;-0.76;100.00
9307;BME280;4691;47.612;7.610;2023-01-27T06:00:42;98766.63;;;-0.74;100.00
9307;BME280;4691;47.612;7.610;2023-01-27T06:03:08;98769.25;;;-0.74;100.00
9307;BME280;4691;47.612;7.610;2023-01-27T06:05:33;98777.38;;;-0.82;100.00
9307;BME280;4691;47.612;7.610;2023-01-27T06:07:58;98786.91;;;-0.79;100.00
9307;BME280;4691;47.612;7.610;2023-01-27T06:10:24;98779.91;;;-0.80;100.00
9307;BME280;4691;47.612;7.610;2023-01-27T06:12:49;98784.09;;;-0.75;100.00
9307;BME280;4691;47.612;7.610;2023-01-27T06:15:14;98784.28;;;-0.79;100.00
9307;BME280;4691;47.612;7.610;2023-01-27T06:17:40;98777.91;;;-0.72;100.00
9307;BME280;4691;47.612;7.610;2023-01-27T06:20:05;98773.72;;;-0.78;100.00
9307;BME280;4691;47.612;7.610;2023-01-27T06:22:31;98770.19;;;-0.77;100.00
9307;BME280;4691;47.612;7.610;2023-01-27T06:24:56;98769.94;;;-0.69;100.00
9307;BME280;4691;47.612;7.610;2023-01-27T06:27:21;98768.91;;;-0.65;100.00
9307;BME280;4691;47.612;7.610;2023-01-27T06:29:47;98778.72;;;-0.70;100.00
9307;BME280;4691;47.612;7.610;2023-01-27T06:32:12;98782.97;;;-0.66;100.00
9307;BME280;4691;47.612;7.610;2023-01-27T06:34:37;98782.75;;;-0.60;100.00
9307;BME280;4691;47.612;7.610;2023-01-27T06:37:03;98779.31;;;-0.62;100.00
9307;BME280;4691;47.612;7.610;2023-01-27T06:39:28;98786.44;;;-0.66;100.00
9307;BME280;4691;47.612;7.610;2023-01-27T06:41:53;98790.84;;;-0.66;100.00
9307;BME280;4691;47.612;7.610;2023-01-27T06:44:19;98787.41;;;-0.68;100.00
9307;BME280;4691;47.612;7.610;2023-01-27T06:46:44;98793.50;;;-0.68;100.00
9307;BME280;4691;47.612;7.610;2023-01-27T06:49:09;98797.00;;;-0.67;100.00
9307;BME280;4691;47.612;7.610;2023-01-27T06:51:35;98804.78;;;-0.64;100.00
9307;BME280;4691;47.612;7.610;2023-01-27T06:54:00;98803.75;;;-0.60;100.00
9307;BME280;4691;47.612;7.610;2023-01-27T06:56:25;98800.13;;;-0.56;100.00
9307;BME280;4691;47.612;7.610;2023-01-27T06:58:50;98805.56;;;-0.62;100.00
9307;BME280;4691;47.612;7.610;2023-01-27T07:01:16;98817.94;;;-0.64;100.00
9307;BME280;4691;47.612;7.610;2023-01-27T07:03:41;98823.97;;;-0.62;100.00
9307;BME280;4691;47.612;7.610;2023-01-27T07:06:07;98823.19;;;-0.64;100.00
9307;BME280;4691;47.612;7.610;2023-01-27T07:08:32;98823.94;;;-0.60;100.00
9307;BME280;4691;47.612;7.610;2023-01-27T07:11:01;98818.00;;;-0.67;100.00
9307;BME280;4691;47.612;7.610;2023-01-27T07:13:26;98814.38;;;-0.63;100.00
9307;BME280;4691;47.612;7.610;2023-01-27T07:15:55;98814.47;;;-0.66;100.00
9307;BME280;4691;47.612;7.610;2023-01-27T07:18:20;98820.44;;;-0.61;100.00
9307;BME280;4691;47.612;7.610;2023-01-27T07:20:46;98815.19;;;-0.61;100.00
9307;BME280;4691;47.612;7.610;2023-01-27T07:23:11;98822.16;;;-0.60;100.00
9307;BME280;4691;47.612;7.610;2023-01-27T07:25:37;98815.38;;;-0.67;100.00
9307;BME280;4691;47.612;7.610;2023-01-27T07:28:03;98813.66;;;-0.68;100.00
9307;BME280;4691;47.612;7.610;2023-01-27T07:30:29;98808.41;;;-0.68;100.00
9307;BME280;4691;47.612;7.610;2023-01-27T07:32:55;98814.38;;;-0.63;100.00
9307;BME280;4691;47.612;7.610;2023-01-27T07:35:21;98819.41;;;-0.57;100.00
9307;BME280;4691;47.612;7.610;2023-01-27T07:37:47;98826.50;;;-0.59;100.00
9307;BME280;4691;47.612;7.610;2023-01-27T07:40:12;98826.69;;;-0.65;100.00
9307;BME280;4691;47.612;7.610;2023-01-27T07:42:38;98822.03;;;-0.57;100.00
9307;BME280;4691;47.612;7.610;2023-01-27T07:45:04;98833.25;;;-0.52;100.00
9307;BME280;4691;47.612;7.610;2023-01-27T07:47:29;98831.56;;;-0.53;100.00
9307;BME280;4691;47.612;7.610;2023-01-27T07:49:54;98836.91;;;-0.56;100.00
9307;BME280;4691;47.612;7.610;2023-01-27T07:52:20;98835.09;;;-0.54;100.00
9307;BME280;4691;47.612;7.610;2023-01-27T07:54:45;98834.53;;;-0.63;100.00
9307;BME280;4691;47.612;7.610;2023-01-27T07:57:10;98843.75;;;-0.52;100.00
9307;BME280;4691;47.612;7.610;2023-01-27T07:59:35;98852.34;;;-0.47;100.00
9307;BME280;4691;47.612;7.610;2023-01-27T08:02:01;98845.44;;;-0.49;100.00
9307;BME280;4691;47.612;7.610;2023-01-27T08:04:26;98855.69;;;-0.41;100.00
9307;BME280;4691;47.612;7.610;2023-01-27T08:06:51;98863.69;;;-0.45;100.00
9307;BME280;4691;47.612;7.610;2023-01-27T08:09:17;98852.28;;;-0.43;100.00
9307;BME280;4691;47.612;7.610;2023-01-27T08:11:42;98859.38;;;-0.47;100.00
9307;BME280;4691;47.612;7.610;2023-01-27T08:14:07;98858.50;;;-0.46;100.00
9307;BME280;4691;47.612;7.610;2023-01-27T08:16:33;98857.44;;;-0.40;100.00
9307;BME280;4691;47.612;7.610;2023-01-27T08:18:58;98859.22;;;-0.41;100.00
9307;BME280;4691;47.612;7.610;2023-01-27T08:21:23;98865.81;;;-0.29;100.00
9307;BME280;4691;47.612;7.610;2023-01-27T08:23:49;98870.22;;;-0.30;100.00
9307;BME280;4691;47.612;7.610;2023-01-27T08:26:15;98870.88;;;-0.23;100.00
9307;BME280;4691;47.612;7.610;2023-01-27T08:28:40;98871.47;;;-0.15;100.00
9307;BME280;4691;47.612;7.610;2023-01-27T08:31:11;98877.84;;;-0.22;100.00
9307;BME280;4691;47.612;7.610;2023-01-27T08:33:38;98878.66;;;-0.20;100.00
9307;BME280;4691;47.612;7.610;2023-01-27T08:36:07;98875.09;;;-0.19;100.00
9307;BME280;4691;47.612;7.610;2023-01-27T08:38:32;98886.53;;;-0.20;100.00
9307;BME280;4691;47.612;7.610;2023-01-27T08:41:05;98900.50;;;-0.18;100.00
9307;BME280;4691;47.612;7.610;2023-01-27T08:43:31;98902.66;;;-0.04;100.00
9307;BME280;4691;47.612;7.610;2023-01-27T08:45:56;98900.13;;;-0.07;100.00
9307;BME280;4691;47.612;7.610;2023-01-27T08:48:24;98910.38;;;0.01;100.00
9307;BME280;4691;47.612;7.610;2023-01-27T08:50:49;98901.31;;;0.09;100.00
9307;BME280;4691;47.612;7.610;2023-01-27T08:53:15;98907.94;;;-0.06;100.00
9307;BME280;4691;47.612;7.610;2023-01-27T08:55:40;98910.69;;;-0.09;100.00
9307;BME280;4691;47.612;7.610;2023-01-27T08:58:06;98917.47;;;-0.02;100.00
9307;BME280;4691;47.612;7.610;2023-01-27T09:00:31;98923.34;;;0.05;100.00
9307;BME280;4691;47.612;7.610;2023-01-27T09:02:56;98920.91;;;0.01;100.00
9307;BME280;4691;47.612;7.610;2023-01-27T09:05:22;98923.53;;;0.01;100.00
9307;BME280;4691;47.612;7.610;2023-01-27T09:07:47;98940.19;;;-0.01;100.00
9307;BME280;4691;47.612;7.610;2023-01-27T09:10:14;98941.13;;;-0.02;100.00
9307;BME280;4691;47.612;7.610;2023-01-27T09:12:40;98946.75;;;-0.12;100.00
9307;BME280;4691;47.612;7.610;2023-01-27T09:15:06;98934.66;;;0.09;100.00
9307;BME280;4691;47.612;7.610;2023-01-27T09:17:31;98955.22;;;-0.04;100.00
9307;BME280;4691;47.612;7.610;2023-01-27T09:19:57;98950.81;;;-0.04;100.00
9307;BME280;4691;47.612;7.610;2023-01-27T09:22:22;98954.97;;;0.04;100.00
9307;BME280;4691;47.612;7.610;2023-01-27T09:24:47;98954.50;;;0.17;100.00
9307;BME280;4691;47.612;7.610;2023-01-27T09:27:13;98953.31;;;0.01;100.00
9307;BME280;4691;47.612;7.610;2023-01-27T09:29:38;98953.88;;;0.11;100.00
9307;BME280;4691;47.612;7.610;2023-01-27T09:32:04;98958.53;;;0.28;100.00
9307;BME280;4691;47.612;7.610;2023-01-27T09:34:29;98953.69;;;0.42;100.00
9307;BME280;4691;47.612;7.610;2023-01-27T09:36:57;98951.06;;;0.15;100.00
9307;BME280;4691;47.612;7.610;2023-01-27T09:39:25;98952.72;;;0.45;100.00
9307;BME280;4691;47.612;7.610;2023-01-27T09:53:17;98983.13;;;0.78;100.00
9307;BME280;4691;47.612;7.610;2023-01-27T10:01:23;99002.53;;;0.74;100.00
9307;BME280;4691;47.612;7.610;2023-01-27T10:06:38;99001.91;;;0.68;100.00
9307;BME280;4691;47.612;7.610;2023-01-27T10:11:54;99010.09;;;0.60;100.00
9307;BME280;4691;47.612;7.610;2023-01-27T10:17:06;99015.06;;;0.42;100.00
9307;BME280;4691;47.612;7.610;2023-01-27T10:25:41;99009.75;;;0.69;100.00
9307;BME280;4691;47.612;7.610;2023-01-27T10:28:12;99007.81;;;0.74;100.00
9307;BME280;4691;47.612;7.610;2023-01-27T10:30:43;98997.81;;;0.84;100.00
9307;BME280;4691;47.612;7.610;2023-01-27T10:35:51;99005.28;;;0.71;100.00
9307;BME280;4691;47.612;7.610;2023-01-27T10:41:04;99005.41;;;0.68;100.00
9307;BME280;4691;47.612;7.610;2023-01-27T10:51:30;99008.78;;;0.97;100.00
9307;BME280;4691;47.612;7.610;2023-01-27T10:54:03;99009.88;;;0.91;100.00
9307;BME280;4691;47.612;7.610;2023-01-27T10:56:55;99010.19;;;0.82;100.00
9307;BME280;4691;47.612;7.610;2023-01-27T11:02:20;99009.28;;;0.83;100.00
9307;BME280;4691;47.612;7.610;2023-01-27T11:04:58;99019.69;;;0.86;100.00
9307;BME280;4691;47.612;7.610;2023-01-27T11:07:25;99015.00;;;0.69;100.00
9307;BME280;4691;47.612;7.610;2023-01-27T11:10:04;99008.56;;;1.03;100.00
9307;BME280;4691;47.612;7.610;2023-01-27T11:12:38;99006.44;;;1.13;100.00
9307;BME280;4691;47.612;7.610;2023-01-27T11:15:32;99007.81;;;1.23;100.00
9307;BME280;4691;47.612;7.610;2023-01-27T11:18:11;99006.97;;;1.22;100.00
9307;BME280;4691;47.612;7.610;2023-01-27T11:20:39;99002.84;;;1.15;100.00
9307;BME280;4691;47.612;7.610;2023-01-27T11:25:55;99009.03;;;1.14;100.00
9307;BME280;4691;47.612;7.610;2023-01-27T11:34:37;99007.91;;;1.21;100.00
9307;BME280;4691;47.612;7.610;2023-01-27T11:37:19;99006.06;;;1.47;100.00
9307;BME280;4691;47.612;7.610;2023-01-27T11:39:45;99005.59;;;1.36;100.00
9307;BME280;4691;47.612;7.610;2023-01-27T11:42:11;99005.59;;;1.36;100.00
9307;BME280;4691;47.612;7.610;2023-01-27T11:44:37;99013.59;;;1.56;100.00
9307;BME280;4691;47.612;7.610;2023-01-27T11:47:05;99022.31;;;1.35;100.00
9307;BME280;4691;47.612;7.610;2023-01-27T11:49:40;99020.25;;;1.66;100.00
9307;BME280;4691;47.612;7.610;2023-01-27T11:52:17;99020.72;;;1.54;100.00
9307;BME280;4691;47.612;7.610;2023-01-27T11:54:50;99023.34;;;1.30;100.00
9307;BME280;4691;47.612;7.610;2023-01-27T11:57:20;99034.13;;;1.24;100.00
9307;BME280;4691;47.612;7.610;2023-01-27T11:59:47;99039.13;;;1.32;100.00
9307;BME280;4691;47.612;7.610;2023-01-27T12:05:06;99034.09;;;1.26;100.00
9307;BME280;4691;47.612;7.610;2023-01-27T12:10:24;99012.59;;;1.13;100.00
9307;BME280;4691;47.612;7.610;2023-01-27T12:12:52;99013.50;;;1.12;100.00
9307;BME280;4691;47.612;7.610;2023-01-27T12:15:17;99011.91;;;1.08;100.00
9307;BME280;4691;47.612;7.610;2023-01-27T12:17:46;99008.03;;;0.93;100.00
9307;BME280;4691;47.612;7.610;2023-01-27T12:20:23;99009.59;;;1.22;100.00
9307;BME280;4691;47.612;7.610;2023-01-27T12:22:53;99007.78;;;1.24;100.00
9307;BME280;4691;47.612;7.610;2023-01-27T12:25:28;99001.28;;;1.33;100.00
9307;BME280;4691;47.612;7.610;2023-01-27T12:27:58;98995.97;;;1.11;100.00
9307;BME280;4691;47.612;7.610;2023-01-27T12:30:30;98999.22;;;1.18;100.00
9307;BME280;4691;47.612;7.610;2023-01-27T12:32:57;99003.53;;;1.20;100.00
9307;BME280;4691;47.612;7.610;2023-01-27T12:35:28;99005.47;;;1.15;100.00
9307;BME280;4691;47.612;7.610;2023-01-27T12:37:58;99004.00;;;1.08;100.00
9307;BME280;4691;47.612;7.610;2023-01-27T12:40:25;99002.28;;;1.30;100.00
9307;BME280;4691;47.612;7.610;2023-01-27T12:45:30;98996.41;;;1.46;100.00
9307;BME280;4691;47.612;7.610;2023-01-27T12:53:05;98989.44;;;1.45;100.00
9307;BME280;4691;47.612;7.610;2023-01-27T12:55:34;98978.91;;;1.45;100.00
9307;BME280;4691;47.612;7.610;2023-01-27T12:58:00;98983.25;;;1.46;100.00
9307;BME280;4691;47.612;7.610;2023-01-27T13:00:27;98985.72;;;1.27;100.00
9307;BME280;4691;47.612;7.610;2023-01-27T13:03:03;98993.34;;;1.35;100.00
9307;BME280;4691;47.612;7.610;2023-01-27T13:05:35;98986.34;;;1.34;100.00
9307;BME280;4691;47.612;7.610;2023-01-27T13:08:00;98997.13;;;1.27;100.00
9307;BME280;4691;47.612;7.610;2023-01-27T13:10:26;98996.22;;;1.52;100.00
9307;BME280;4691;47.612;7.610;2023-01-27T13:12:57;99005.88;;;1.51;100.00
9307;BME280;4691;47.612;7.610;2023-01-27T13:15:25;98996.53;;;1.43;100.00
9307;BME280;4691;47.612;7.610;2023-01-27T13:18:17;98998.88;;;1.50;100.00
9307;BME280;4691;47.612;7.610;2023-01-27T13:20:49;99010.53;;;1.45;100.00
9307;BME280;4691;47.612;7.610;2023-01-27T13:23:24;99010.81;;;1.61;100.00
9307;BME280;4691;47.612;7.610;2023-01-27T13:31:09;99038.13;;;1.35;100.00
9307;BME280;4691;47.612;7.610;2023-01-27T13:33:45;99035.44;;;1.36;100.00
9307;BME280;4691;47.612;7.610;2023-01-27T13:41:52;99037.78;;;1.44;100.00
9307;BME280;4691;47.612;7.610;2023-01-27T13:44:31;99026.31;;;1.68;100.00
9307;BME280;4691;47.612;7.610;2023-01-27T13:47:03;99032.97;;;1.55;100.00
9307;BME280;4691;47.612;7.610;2023-01-27T13:49:46;99023.47;;;1.96;100.00
9307;BME280;4691;47.612;7.610;2023-01-27T13:52:14;99025.13;;;1.99;100.00
9307;BME280;4691;47.612;7.610;2023-01-27T13:54:40;99027.38;;;1.86;100.00
9307;BME280;4691;47.612;7.610;2023-01-27T14:05:27;99036.88;;;1.68;100.00
9307;BME280;4691;47.612;7.610;2023-01-27T14:08:08;99037.41;;;1.77;100.00
9307;BME280;4691;47.612;7.610;2023-01-27T14:10:40;99033.50;;;1.87;100.00
9307;BME280;4691;47.612;7.610;2023-01-27T14:13:37;99039.03;;;1.81;100.00
9307;BME280;4691;47.612;7.610;2023-01-27T14:16:17;99047.63;;;1.86;100.00
9307;BME280;4691;47.612;7.610;2023-01-27T14:18:47;99041.41;;;1.65;100.00
9307;BME280;4691;47.612;7.610;2023-01-27T14:21:26;99035.84;;;1.72;100.00
9307;BME280;4691;47.612;7.610;2023-01-27T14:26:52;99038.53;;;1.71;100.00
9307;BME280;4691;47.612;7.610;2023-01-27T14:29:41;99044.53;;;1.51;100.00
9307;BME280;4691;47.612;7.610;2023-01-27T14:32:38;99050.16;;;1.65;100.00
9307;BME280;4691;47.612;7.610;2023-01-27T14:35:21;99055.78;;;1.56;100.00
9307;BME280;4691;47.612;7.610;2023-01-27T14:43:18;99065.50;;;1.54;100.00
9307;BME280;4691;47.612;7.610;2023-01-27T14:48:51;99061.16;;;1.53;100.00
9307;BME280;4691;47.612;7.610;2023-01-27T14:54:15;99073.41;;;1.54;100.00
9307;BME280;4691;47.612;7.610;2023-01-27T14:59:38;99078.75;;;1.52;100.00
9307;BME280;4691;47.612;7.610;2023-01-27T15:05:16;99081.13;;;1.37;100.00
9307;BME280;4691;47.612;7.610;2023-01-27T15:10:31;99091.53;;;1.40;100.00
9307;BME280;4691;47.612;7.610;2023-01-27T15:15:58;99093.34;;;1.38;100.00
9307;BME280;4691;47.612;7.610;2023-01-27T15:26:41;99105.84;;;1.33;100.00
9307;BME280;4691;47.612;7.610;2023-01-27T15:29:12;99104.25;;;1.28;100.00
9307;BME280;4691;47.612;7.610;2023-01-27T15:31:38;99101.88;;;1.21;100.00
9307;BME280;4691;47.612;7.610;2023-01-27T15:36:29;99101.00;;;1.20;100.00
9307;BME280;4691;47.612;7.610;2023-01-27T15:41:37;99106.50;;;1.14;100.00